Chicago O'Hare International Airport
KORD : rendu visible

Aérodrome :











RETROUVEZ-NOUS SUR...

 
LOGIN :

S'inscrire | Disclaimer

   EN    FR    IT 

 









Légende :    VFR   VFR Marginal   IFR   IFR Intensif   IFR Très Intensif
Visi : 
Plafond : 
>= 8 km
>= 3000ft
5 à 8 km
1000 à 3000 ft
1500m à 5 km
500 à 1000 ft
800 à 1500m
200 à 500 ft
< 800m
< 200 ft
Symboles :   Orages  Brouillard  Fortes neiges  Fortes précipitations  Vent > 20 kt






- Altitude de l'aérodrome : 672 ft
- Code IATA : ORD


KORD - Chicago O'Hare International

DERNIER METAR :
  • 190151Z 27015G34KT 10SM BKN022 OVC045 M11/M16 A2995 RMK AO2 PK WND 26039/0110 SNE37 SLP152 P0000 T11111156 $

METARs EXPIRÉS :
  • 190051Z 27018G30KT 9SM -SN BKN023 OVC045 M10/M14 A2992 RMK AO2 PK WND 27040/0004 SLP142 P0000 T11001144 $
  • 182351Z 26023G35KT 5SM -SN OVC020 M09/M12 A2989 RMK AO2 PK WND 27037/2300 SLP131 4/002 P0000 60000 T10891122 10011 21089 52044 $

TAF KORD
Valide du 19 à 00h jusqu'au 20 à 06h UTC


182327Z 1900/2006 27022G33KT 6SM -SHSN BKN015 OVC025
FM190400 28016G25KT P6SM BKN020
FM191500 31013KT P6SM BKN020



MET'MAP, la Météo Aéronautique d'un coup d'oeil ! - Copyright ORBIFLY Décembre 2007 - Disclaimer

ORBIFLY MET'MAP TEAM :

Programmation & Développement : Alexandra Zaïnal
Sur une idée originale de : Baudouin d'Aumeries
Assistance à la programmation : Marc-Olivier Méhu
Soutien technique & logistique : Manuel Goepfert

Contact : metmap@orbifly.com




SOURCES & CREDITS :

   NOAA       Earth
Advisory